x

La Perouse Bank (46206) Wave Buoy

10:00 - Wed 30th Jul 2014 All times are PDT. -7 hours from GMT.

  • Sig Wave height 3.3ft
  • Peak Period 4s
  • Wind
    16mph, 18mph gusts
  • Sea Temp 58°f
  • Ar Temp 59°f
  • Sea Pressure 1021.6mb
  • La Perouse Bank
  • La Perouse Bank

More Historic Weather Station data

Upgrade to MSW Pro to gain access to the past 30 days of data for over 8000 Wavebouys and Weather Stations around the globe.

Join Pro

Comparision Forecast

View Surf forecast
   
Qua 07/30 10:00 3.5ft 4s 16 18 mph 1021.6mb 58f 59f
9:00 3.5ft 14s 16 18 mph 1021.8mb 58f 59f
8:00 4ft 7s 16 18 mph 1022.1mb 58f 59f
7:00 3.5ft 5s 16 20 mph 1022.1mb 58f 60f
6:00 3.5ft 5s 18 20 mph 1022.3mb 59f 60f
5:00 3.5ft 7s 18 20 mph 1022.5mb 58f 59f
4:00 3.5ft 14s 16 20 mph 1022.8mb 58f 59f
3:00 3.5ft 5s 16 18 mph 1022.9mb 58f 59f
2:00 3.5ft 7s 16 18 mph 1022.9mb 58f 59f
1:00 3.5ft 7s 16 18 mph 1023mb 58f 59f
12:00 3.5ft 5s 13 16 mph 1022.9mb 58f 59f
11:00 3.5ft 5s 11 13 mph 1022.8mb 57f 58f
10:00 3.5ft 6s 13 16 mph 1022.5mb 58f 58f
9:00 4ft 6s 13 16 mph 1022.5mb 57f 58f
8:00 4.5ft 6s 13 16 mph 1022.2mb 57f 58f
7:00 4.5ft 6s 16 18 mph 1021.9mb 57f 58f
6:00 4ft 6s 18 20 mph 1021.4mb 57f 59f
5:00 4ft 5s 16 18 mph 1021.3mb 57f 59f
4:00 4ft 5s 18 20 mph 1021.1mb 57f 59f
3:00 4ft 7s 20 22 mph 1021mb 58f 59f
2:00 4ft 5s 18 20 mph 1021mb 58f 59f
1:00 4ft 5s 18 20 mph 1021.1mb 58f 59f
12:00 4ft 4s 18 22 mph 1021mb 58f 60f
Ter 07/29 11:00 4ft 4s 20 22 mph 1020.8mb 58f 60f
10:00 4ft 8s 18 20 mph 1021.1mb 59f 60f
9:00 3.5ft 8s 18 22 mph 1021mb 59f 60f
8:00 3.5ft 7s 20 22 mph 1021.1mb 59f 60f
7:00 3.5ft 8s 16 20 mph 1021.3mb 59f 60f
6:00 3ft 8s 16 18 mph 1021.7mb 59f 61f
5:00 3ft 8s 13
mph
1022.1mb 59f 61f
4:00 3ft 8s 11 13 mph 1022.3mb 59f 60f
3:00 3ft 7s 11 13 mph 1022.5mb 59f 61f
2:00 3ft 7s 11 16 mph 1022.5mb 59f 61f
1:00 3ft 8s 9 11 mph 1022.7mb 59f 60f
12:00 3ft 7s 9
mph
1022.8mb 59f 60f
11:00 3ft 8s 7
mph
1022.7mb 58f 59f
10:00 3ft 8s 4 7 mph 1022.5mb 58f 59f
9:00 3ft 8s 7
mph
1022.6mb 57f 59f
8:00 3ft 8s 13 16 mph 1022.5mb 57f 59f
7:00 2.5ft 8s 16 20 mph 1021.9mb 56f 58f
6:00 2.5ft 7s 16 20 mph 1021.5mb 56f 59f
5:00 2.5ft 8s 9 11 mph 1021.3mb 56f 59f
4:00 2.5ft 8s 11 13 mph 1020.9mb 56f 58f
3:00 2.5ft 8s 13 16 mph 1020.7mb 57f 58f
2:00 2.5ft 8s 13 16 mph 1020.6mb 57f 58f
1:00 2.5ft 8s 13 16 mph 1020.7mb 57f 57f
12:00 2.5ft 8s 13 16 mph 1020.8mb 57f 57f
Seg 07/28 11:00 3ft 8s 13 18 mph 1020.9mb 58f 57f
10:00 3ft 8s 13 18 mph 1021.1mb 57f 57f
9:00 3.5ft 8s 18
mph
1021mb 57f 57f
8:00 3.5ft 4s 18 22 mph 1021.1mb 57f 57f
7:00 3.5ft 7s 16 20 mph 1021.4mb 57f 57f
6:00 3ft 6s 18 22 mph 1021.6mb 57f 58f
5:00 3ft 8s 11 13 mph 1021.8mb 58f 59f
4:00 3.5ft 8s 13 18 mph 1022.1mb 57f 58f
3:00 3ft 8s 16 18 mph 1022.2mb 56f 57f
2:00 3.5ft 8s 16 18 mph 1022.1mb 56f 57f
1:00 3.5ft 8s 11 13 mph 1022.2mb 56f 58f
12:00 3.5ft 8s 16 18 mph 1022.1mb 56f 56f
11:00 3.5ft 8s 13 16 mph 1021.9mb 56f 56f
10:00 3.5ft 7s 11 13 mph 1021.7mb 56f 56f
9:00 3.5ft 8s 11 16 mph 1021.7mb 56f 56f
8:00 3.5ft 8s 13 18 mph 1021.6mb 56f 56f
7:00 3.5ft 8s 16 18 mph 1021.5mb 56f 56f
6:00 3.5ft 8s 16 20 mph 1021.1mb 56f 56f
5:00 3.5ft 4s 16 18 mph 1020.8mb 56f 57f
4:00 3.5ft 4s 16 20 mph 1020.7mb 56f 57f
3:00 3.5ft 8s 18 22 mph 1020.7mb 56f 58f
2:00 3.5ft 8s 20 22 mph 1020.7mb 57f 58f
1:00 3.5ft 4s 18 20 mph 1021mb 57f 59f
12:00 4ft 9s 18 22 mph 1021.2mb 57f 59f
Dom 07/27 11:00 4ft 7s 16 20 mph 1021.3mb 57f 59f
10:00 4ft 8s 18 20 mph 1021.3mb 56f 59f
9:00 4ft 8s 18 22 mph 1021.3mb 57f 60f
8:00 4ft 8s 18 22 mph 1021.5mb 57f 60f
7:00 3.5ft 8s 18 20 mph 1021.8mb 57f 60f
6:00 3.5ft 8s 18 20 mph 1022.2mb 57f 60f
5:00 3.5ft 8s 16 18 mph 1022.5mb 57f 60f
4:00 3.5ft 8s 13 16 mph 1022.9mb 58f 59f
3:00 3.5ft 8s 13 16 mph 1023.2mb 57f 59f
2:00 3ft 8s 11 13 mph 1023.6mb 57f 59f
1:00 2.5ft 9s 11 13 mph 1023.7mb 57f 59f
12:00 3ft 9s 9 11 mph 1023.9mb 57f 59f
11:00 3.5ft 9s 7 9 mph 1024mb 57f 58f
10:00 3.5ft 8s 9
mph
1023.9mb 57f 58f
9:00 3.5ft 8s 7 9 mph 1024.1mb 56f 58f
8:00 3.5ft 8s 7 9 mph 1024.1mb 56f 58f
7:00 3.5ft 8s 9
mph
1023.7mb 56f 58f